Time;durP1;ratioP1;P1;durP2;ratioP2;P2;SDS_P1;SDS_P2;PMS_P1;PMS_P2;Temp;Humidity;BMP_temperature;BMP_pressure;BME280_temperature;BME280_humidity;BME280_pressure;Samples;Min_cycle;Max_cycle;Signal;HPM_P1;HPM_P2
2023/08/18 00:02:22;;;;;;;0.00;0.00;;;18.00;82.00;;;;;;5010183;28;20042;-78
2023/08/18 00:04:48;;;;;;;0.00;0.00;;;18.00;82.00;;;;;;5010057;28;20498;-78
2023/08/18 00:07:15;;;;;;;0.00;0.00;;;17.90;81.90;;;;;;5016855;28;20048;-78
2023/08/18 00:09:41;;;;;;;0.00;0.00;;;17.90;81.90;;;;;;5029743;28;20045;-78
2023/08/18 00:12:06;;;;;;;0.00;0.00;;;18.00;81.90;;;;;;5029895;28;20049;-79
2023/08/18 00:14:34;;;;;;;0.00;0.00;;;17.90;81.80;;;;;;5012109;28;20743;-78
2023/08/18 00:16:59;;;;;;;0.00;0.00;;;17.80;81.80;;;;;;5028487;28;20055;-79
2023/08/18 00:19:25;;;;;;;0.00;0.00;;;17.80;81.80;;;;;;5011697;28;20387;-78
2023/08/18 00:21:50;;;;;;;0.00;0.00;;;17.80;81.90;;;;;;5011582;28;20421;-78
2023/08/18 00:24:16;;;;;;;0.00;0.00;;;17.80;81.90;;;;;;5029551;28;20172;-79
2023/08/18 00:26:42;;;;;;;0.03;0.03;;;17.80;81.90;;;;;;5002449;28;20128;-78
2023/08/18 00:29:07;;;;;;;0.08;0.08;;;17.70;81.90;;;;;;4991942;28;20046;-78
2023/08/18 00:31:33;;;;;;;0.00;0.00;;;17.70;81.80;;;;;;5009732;28;20053;-78
2023/08/18 00:33:59;;;;;;;0.00;0.00;;;17.70;81.80;;;;;;4992219;28;20049;-78
2023/08/18 00:36:27;;;;;;;0.00;0.00;;;17.70;81.80;;;;;;5017111;28;20054;-77
2023/08/18 00:38:53;;;;;;;0.00;0.00;;;17.70;81.80;;;;;;4995281;28;20067;-79
2023/08/18 00:41:19;;;;;;;0.00;0.00;;;17.70;81.90;;;;;;5029692;28;20482;-78
2023/08/18 00:43:44;;;;;;;0.00;0.00;;;17.70;81.90;;;;;;5029015;28;20094;-78
2023/08/18 00:46:10;;;;;;;0.00;0.00;;;17.70;81.90;;;;;;5007965;28;20049;-78
2023/08/18 00:48:37;;;;;;;0.00;0.00;;;17.80;82.00;;;;;;5009424;28;20509;-77
2023/08/18 00:51:04;;;;;;;0.00;0.00;;;17.70;82.00;;;;;;5009349;28;20046;-78
2023/08/18 00:53:30;;;;;;;0.00;0.00;;;17.70;82.10;;;;;;5009667;28;20100;-78
2023/08/18 00:55:55;;;;;;;0.00;0.00;;;17.70;82.10;;;;;;5020019;28;20598;-79
2023/08/18 00:58:22;;;;;;;0.00;0.00;;;17.70;82.10;;;;;;4993062;28;20080;-78
2023/08/18 01:00:49;;;;;;;0.00;0.00;;;17.80;82.10;;;;;;4992225;28;20410;-78
2023/08/18 01:03:15;;;;;;;0.00;0.00;;;17.70;82.00;;;;;;5009587;28;20050;-78
2023/08/18 01:05:41;;;;;;;0.00;0.00;;;17.70;82.00;;;;;;5019136;28;20053;-78
2023/08/18 01:08:06;;;;;;;0.00;0.00;;;17.70;82.00;;;;;;5028692;28;20414;-79
2023/08/18 01:10:41;;;;;;;0.00;0.00;;;17.70;81.90;;;;;;5011750;28;20091;-79
2023/08/18 01:13:16;;;;;;;0.00;0.00;;;17.70;82.00;;;;;;4991463;28;20503;-78
2023/08/18 01:15:44;;;;;;;0.00;0.00;;;17.70;82.00;;;;;;5010341;28;20053;-78
2023/08/18 01:18:11;;;;;;;0.00;0.00;;;17.60;82.10;;;;;;5019065;28;20118;-78
2023/08/18 01:20:37;;;;;;;0.00;0.00;;;17.60;82.00;;;;;;5032822;28;20045;-79
2023/08/18 01:23:04;;;;;;;0.00;0.00;;;17.60;81.90;;;;;;5032700;28;20559;-78
2023/08/18 01:25:30;;;;;;;0.00;0.00;;;17.60;81.80;;;;;;5032621;28;20041;-78
2023/08/18 01:27:58;;;;;;;0.00;0.00;;;17.50;81.90;;;;;;5032512;28;20493;-78
2023/08/18 01:30:45;;;;;;;0.00;0.00;;;17.50;82.10;;;;;;5032379;28;20042;-79
2023/08/18 01:33:10;;;;;;;0.00;0.00;;;17.50;82.10;;;;;;5032570;28;20041;-79
2023/08/18 01:35:39;;;;;;;0.00;0.00;;;17.50;82.30;;;;;;5023809;28;20065;-78
2023/08/18 01:38:06;;;;;;;0.00;0.00;;;17.50;82.20;;;;;;4994937;28;20065;-79
2023/08/18 01:40:33;;;;;;;0.00;0.00;;;17.50;82.20;;;;;;4994886;28;20049;-79
2023/08/18 01:42:59;;;;;;;0.20;0.20;;;17.40;82.20;;;;;;5014503;28;20054;-79
2023/08/18 01:45:25;;;;;;;0.00;0.00;;;17.50;82.30;;;;;;5001947;28;20144;-78
2023/08/18 01:47:50;;;;;;;0.00;0.00;;;17.50;82.30;;;;;;5014425;28;20049;-78
2023/08/18 01:50:16;;;;;;;0.00;0.00;;;17.50;82.30;;;;;;5014081;28;20034;-78
2023/08/18 01:52:42;;;;;;;0.00;0.00;;;17.40;82.20;;;;;;5031961;28;20056;-78
2023/08/18 01:55:08;;;;;;;0.00;0.00;;;17.40;82.30;;;;;;5013404;28;20041;-78
2023/08/18 01:57:33;;;;;;;0.00;0.00;;;17.40;82.30;;;;;;5014324;28;20046;-78
2023/08/18 01:59:59;;;;;;;0.00;0.00;;;17.40;82.30;;;;;;5014662;28;20505;-78
2023/08/18 02:02:24;;;;;;;0.00;0.00;;;17.40;82.40;;;;;;5031145;28;20092;-78
2023/08/18 02:04:50;;;;;;;0.00;0.00;;;17.40;82.50;;;;;;5030402;28;20115;-78
2023/08/18 02:07:16;;;;;;;0.15;0.15;;;17.40;82.50;;;;;;5012219;28;20045;-78
2023/08/18 02:09:41;;;;;;;0.00;0.00;;;17.30;82.50;;;;;;5012228;28;20052;-78
2023/08/18 02:12:07;;;;;;;0.00;0.00;;;17.30;82.70;;;;;;5012239;28;20048;-78
2023/08/18 02:14:32;;;;;;;0.00;0.00;;;17.30;82.70;;;;;;5010711;28;20483;-77
2023/08/18 02:16:58;;;;;;;0.00;0.00;;;17.30;82.70;;;;;;5031208;28;20409;-78
2023/08/18 02:19:24;;;;;;;0.00;0.00;;;17.30;82.80;;;;;;5013695;28;20099;-78
2023/08/18 02:21:49;;;;;;;0.00;0.00;;;17.30;83.00;;;;;;5014249;28;20124;-79
2023/08/18 02:24:15;;;;;;;0.00;0.00;;;17.30;83.00;;;;;;5014298;28;20077;-78
2023/08/18 02:26:41;;;;;;;0.00;0.00;;;17.20;83.10;;;;;;5031205;28;20840;-78
2023/08/18 02:29:07;;;;;;;0.00;0.00;;;17.30;83.30;;;;;;5031511;28;20049;-78
2023/08/18 02:31:33;;;;;;;0.00;0.00;;;17.20;83.20;;;;;;5013896;28;20111;-78
2023/08/18 02:33:58;;;;;;;0.00;0.00;;;17.20;83.30;;;;;;5014229;28;20103;-78
2023/08/18 02:36:24;;;;;;;0.00;0.00;;;17.20;83.30;;;;;;4999912;28;20462;-78
2023/08/18 02:38:50;;;;;;;0.00;0.00;;;17.20;83.20;;;;;;4994107;28;20499;-78
2023/08/18 02:41:17;;;;;;;0.00;0.00;;;17.10;83.40;;;;;;5028830;28;20096;-78
2023/08/18 02:43:47;;;;;;;0.00;0.00;;;17.10;83.40;;;;;;5013517;28;20041;-78
2023/08/18 02:46:13;;;;;;;0.00;0.00;;;17.10;83.50;;;;;;5013656;28;20671;-78
2023/08/18 02:48:38;;;;;;;0.00;0.00;;;17.10;83.50;;;;;;5013730;28;20099;-78
2023/08/18 02:51:06;;;;;;;0.00;0.00;;;17.10;83.70;;;;;;4998482;28;20396;-78
2023/08/18 02:53:32;;;;;;;0.00;0.00;;;17.10;83.80;;;;;;4993865;28;20042;-78
2023/08/18 02:55:58;;;;;;;0.00;0.00;;;17.10;83.80;;;;;;5004612;28;20486;-78
2023/08/18 02:58:28;;;;;;;0.00;0.00;;;17.10;83.90;;;;;;5031920;28;20041;-79
2023/08/18 03:01:02;;;;;;;0.00;0.00;;;17.10;84.00;;;;;;5008818;28;20111;-78
2023/08/18 03:03:28;;;;;;;0.00;0.00;;;17.10;83.80;;;;;;4997390;28;20080;-78
2023/08/18 03:05:58;;;;;;;0.00;0.00;;;17.10;83.80;;;;;;5019754;28;20064;-78
2023/08/18 03:08:23;;;;;;;0.00;0.00;;;17.10;83.80;;;;;;5031025;28;20112;-79
2023/08/18 03:11:00;;;;;;;0.00;0.00;;;17.10;84.00;;;;;;5012955;28;20442;-78
2023/08/18 03:13:26;;;;;;;0.00;0.00;;;17.10;84.00;;;;;;5030893;28;20056;-78
2023/08/18 03:15:52;;;;;;;0.00;0.00;;;17.10;83.90;;;;;;5006956;28;20038;-78
2023/08/18 03:18:18;;;;;;;0.00;0.00;;;17.10;83.90;;;;;;4977079;28;20050;-78
2023/08/18 03:20:46;;;;;;;0.00;0.00;;;17.10;83.90;;;;;;5022256;28;20041;-77
2023/08/18 03:23:16;;;;;;;0.00;0.00;;;17.00;83.90;;;;;;5030628;28;20406;-77
2023/08/18 03:25:42;;;;;;;0.00;0.00;;;17.10;83.90;;;;;;5030269;28;20110;-79
2023/08/18 03:28:08;;;;;;;0.00;0.00;;;17.10;84.00;;;;;;5022877;28;20049;-78
2023/08/18 03:30:40;;;;;;;0.00;0.00;;;17.10;84.00;;;;;;4993398;28;20042;-77
2023/08/18 03:33:06;;;;;;;0.00;0.00;;;17.10;83.90;;;;;;5008322;28;20487;-78
2023/08/18 03:35:35;;;;;;;0.00;0.00;;;17.00;83.80;;;;;;5030364;28;20057;-78
2023/08/18 03:38:01;;;;;;;0.00;0.00;;;17.00;83.90;;;;;;5025316;28;20084;-79
2023/08/18 03:40:27;;;;;;;0.20;0.20;;;17.00;83.90;;;;;;5010110;28;20445;-78
2023/08/18 03:42:52;;;;;;;0.00;0.00;;;17.00;84.00;;;;;;5010208;28;20124;-78
2023/08/18 03:45:18;;;;;;;0.00;0.00;;;17.00;84.00;;;;;;5010533;28;20041;-78
2023/08/18 03:47:45;;;;;;;0.08;0.08;;;17.00;84.10;;;;;;5014776;28;20046;-78
2023/08/18 03:50:11;;;;;;;0.00;0.00;;;17.00;84.20;;;;;;5009753;28;20049;-77
2023/08/18 03:52:37;;;;;;;0.00;0.00;;;17.10;84.30;;;;;;5018370;28;20072;-78
2023/08/18 03:55:04;;;;;;;0.00;0.00;;;17.00;84.20;;;;;;5011725;28;20498;-77
2023/08/18 03:57:30;;;;;;;0.00;0.00;;;17.10;84.10;;;;;;5029852;28;20489;-78
2023/08/18 03:59:55;;;;;;;0.00;0.00;;;17.10;84.10;;;;;;5012074;28;20041;-78
2023/08/18 04:02:22;;;;;;;0.00;0.00;;;17.10;84.10;;;;;;5025171;28;20337;-77
2023/08/18 04:04:48;;;;;;;0.00;0.00;;;17.10;84.20;;;;;;5010345;28;20054;-79
2023/08/18 04:07:13;;;;;;;0.00;0.00;;;17.10;84.10;;;;;;5009753;28;20045;-78
2023/08/18 04:09:39;;;;;;;0.00;0.00;;;17.10;84.30;;;;;;5007804;28;20410;-78
2023/08/18 04:12:05;;;;;;;0.00;0.00;;;17.10;84.20;;;;;;5011660;28;20045;-78
2023/08/18 04:14:30;;;;;;;0.00;0.00;;;17.10;84.50;;;;;;5011987;28;20049;-77
2023/08/18 04:16:56;;;;;;;0.00;0.00;;;17.10;84.30;;;;;;5012312;28;20045;-78
2023/08/18 04:19:22;;;;;;;0.00;0.00;;;17.10;84.20;;;;;;5010523;28;20045;-78
2023/08/18 04:21:47;;;;;;;0.00;0.00;;;17.10;84.20;;;;;;5011605;28;20037;-77
2023/08/18 04:24:13;;;;;;;0.00;0.00;;;17.10;84.20;;;;;;5029598;28;20467;-77
2023/08/18 04:26:39;;;;;;;0.00;0.00;;;17.10;84.20;;;;;;5012471;28;20584;-77
2023/08/18 04:29:06;;;;;;;0.00;0.00;;;17.10;84.00;;;;;;5029220;28;20052;-79
2023/08/18 04:31:32;;;;;;;0.00;0.00;;;17.10;84.10;;;;;;5029512;28;20128;-78
2023/08/18 04:33:58;;;;;;;0.00;0.00;;;17.10;84.20;;;;;;5029625;28;20409;-77
2023/08/18 04:36:23;;;;;;;0.00;0.00;;;17.10;84.20;;;;;;5029234;28;20477;-78
2023/08/18 04:38:49;;;;;;;0.00;0.00;;;17.10;84.30;;;;;;5029674;28;20128;-78
2023/08/18 04:41:15;;;;;;;0.00;0.00;;;17.10;84.30;;;;;;5029766;28;20437;-77
2023/08/18 04:43:41;;;;;;;0.00;0.00;;;17.10;84.30;;;;;;5029371;28;20383;-77
2023/08/18 04:46:06;;;;;;;0.00;0.00;;;17.10;84.30;;;;;;5031339;28;20490;-79
2023/08/18 04:48:32;;;;;;;0.00;0.00;;;17.10;84.40;;;;;;5030064;28;20054;-78
2023/08/18 04:50:58;;;;;;;0.00;0.00;;;17.10;84.50;;;;;;5011821;28;20584;-79
2023/08/18 04:53:24;;;;;;;0.00;0.00;;;17.10;84.50;;;;;;5014822;28;20080;-78
2023/08/18 04:55:49;;;;;;;0.00;0.00;;;17.10;84.50;;;;;;5023693;28;20041;-78
2023/08/18 04:58:15;;;;;;;0.00;0.00;;;17.10;84.60;;;;;;5014186;28;20414;-78
2023/08/18 05:00:44;;;;;;;0.00;0.00;;;17.10;84.70;;;;;;5014639;28;20472;-78
2023/08/18 05:03:10;;;;;;;0.00;0.00;;;17.10;84.60;;;;;;4996682;28;20052;-78
2023/08/18 05:05:56;;;;;;;0.00;0.00;;;17.20;84.70;;;;;;4996580;28;20054;-79
2023/08/18 05:08:21;;;;;;;0.00;0.00;;;17.20;84.80;;;;;;5014357;28;20046;-79
2023/08/18 05:10:47;;;;;;;0.00;0.00;;;17.10;84.70;;;;;;4996168;28;20411;-78
2023/08/18 05:13:13;;;;;;;0.00;0.00;;;17.20;84.60;;;;;;4996569;28;20057;-78
2023/08/18 05:15:39;;;;;;;0.00;0.00;;;17.20;84.60;;;;;;5027229;28;20051;-79
2023/08/18 05:18:04;;;;;;;0.00;0.00;;;17.20;84.70;;;;;;5028915;28;20049;-78
2023/08/18 05:20:30;;;;;;;0.00;0.00;;;17.20;84.90;;;;;;5035114;28;20045;-78
2023/08/18 05:22:55;;;;;;;0.00;0.00;;;17.30;85.10;;;;;;5034337;28;20095;-78
2023/08/18 05:25:21;;;;;;;0.00;0.00;;;17.30;84.90;;;;;;5035223;28;20076;-78
2023/08/18 05:27:47;;;;;;;0.00;0.00;;;17.30;85.00;;;;;;5051984;28;20465;-78
2023/08/18 05:30:13;;;;;;;0.00;0.00;;;17.30;84.80;;;;;;5034749;28;20049;-78
2023/08/18 05:32:39;;;;;;;0.00;0.00;;;17.30;85.10;;;;;;5009642;28;20423;-79
2023/08/18 05:35:05;;;;;;;0.00;0.00;;;17.30;85.20;;;;;;5014475;28;20056;-78
2023/08/18 05:37:31;;;;;;;0.00;0.00;;;17.30;85.30;;;;;;5047462;28;20580;-78
2023/08/18 05:39:56;;;;;;;0.00;0.00;;;17.30;85.30;;;;;;5052602;28;20070;-78
2023/08/18 05:42:22;;;;;;;0.00;0.00;;;17.30;85.30;;;;;;5052465;28;20187;-78
2023/08/18 05:44:48;;;;;;;0.00;0.00;;;17.30;85.50;;;;;;5052393;28;20048;-77
2023/08/18 05:47:14;;;;;;;0.00;0.00;;;17.40;85.40;;;;;;5046386;28;20094;-77
2023/08/18 05:49:39;;;;;;;0.00;0.00;;;17.40;85.30;;;;;;5032079;28;20417;-78
2023/08/18 05:52:05;;;;;;;0.00;0.00;;;17.40;85.50;;;;;;5032328;28;20045;-78
2023/08/18 05:54:31;;;;;;;0.00;0.00;;;17.40;85.30;;;;;;5032319;28;20521;-77
2023/08/18 05:56:57;;;;;;;0.00;0.00;;;17.40;85.30;;;;;;5032007;28;20045;-78
2023/08/18 05:59:22;;;;;;;0.00;0.00;;;17.50;85.20;;;;;;5052081;28;20815;-78
2023/08/18 06:01:50;;;;;;;0.00;0.00;;;17.50;85.20;;;;;;5051873;28;20049;-78
2023/08/18 06:04:15;;;;;;;0.00;0.00;;;17.50;85.20;;;;;;5050840;28;20559;-78
2023/08/18 06:06:41;;;;;;;0.00;0.00;;;17.60;85.10;;;;;;5052250;28;20132;-78
2023/08/18 06:09:06;;;;;;;0.00;0.00;;;17.60;85.10;;;;;;5033745;28;20052;-77
2023/08/18 06:11:32;;;;;;;0.00;0.00;;;17.60;85.10;;;;;;5031668;28;20179;-78
2023/08/18 06:13:59;;;;;;;0.00;0.00;;;17.70;85.10;;;;;;5032176;28;20498;-77
2023/08/18 06:16:25;;;;;;;0.00;0.00;;;17.70;85.10;;;;;;5031829;28;20132;-78
2023/08/18 06:18:50;;;;;;;0.00;0.00;;;17.70;85.20;;;;;;5032047;28;20139;-79
2023/08/18 06:21:16;;;;;;;0.00;0.00;;;17.70;85.10;;;;;;5032438;28;20092;-79
2023/08/18 06:23:41;;;;;;;0.00;0.00;;;17.70;84.90;;;;;;5041550;28;20040;-76
2023/08/18 06:26:07;;;;;;;0.00;0.00;;;17.70;85.00;;;;;;5051512;28;20079;-78
2023/08/18 06:28:32;;;;;;;0.00;0.00;;;17.70;85.00;;;;;;5032876;28;20056;-79
2023/08/18 06:31:07;;;;;;;0.00;0.00;;;17.70;85.10;;;;;;5051057;28;20110;-78
2023/08/18 06:33:34;;;;;;;0.00;0.00;;;17.80;85.20;;;;;;5050812;28;20037;-78
2023/08/18 06:36:00;;;;;;;0.00;0.00;;;17.90;85.20;;;;;;5032662;28;20052;-79
2023/08/18 06:38:26;;;;;;;0.00;0.00;;;17.90;85.10;;;;;;5038568;28;20045;-77
2023/08/18 06:40:51;;;;;;;0.00;0.00;;;17.90;85.10;;;;;;5042961;28;20052;-77
2023/08/18 06:43:17;;;;;;;0.00;0.00;;;18.00;85.10;;;;;;5011987;28;20041;-77
2023/08/18 06:45:42;;;;;;;0.00;0.00;;;18.00;85.00;;;;;;5023403;23;20210;-74
2023/08/18 06:48:08;;;;;;;0.00;0.00;;;18.00;85.10;;;;;;5018283;28;20050;-74
2023/08/18 06:50:34;;;;;;;0.00;0.00;;;18.00;85.10;;;;;;5015788;28;20057;-75
2023/08/18 06:52:59;;;;;;;0.00;0.00;;;18.00;85.00;;;;;;5021651;28;20037;-75
2023/08/18 06:55:25;;;;;;;0.00;0.00;;;18.10;85.00;;;;;;5006143;28;20058;-73
2023/08/18 06:57:51;;;;;;;0.00;0.00;;;18.10;85.00;;;;;;5016950;28;20114;-74
2023/08/18 07:00:18;;;;;;;0.00;0.00;;;18.10;85.00;;;;;;5025127;28;20447;-75
2023/08/18 07:02:44;;;;;;;0.00;0.00;;;18.20;85.10;;;;;;5022729;28;20497;-74
2023/08/18 07:05:12;;;;;;;0.00;0.00;;;18.20;85.20;;;;;;5012784;28;20045;-73
2023/08/18 07:07:38;;;;;;;0.00;0.00;;;18.20;85.30;;;;;;5016161;28;20049;-74
2023/08/18 07:10:04;;;;;;;0.00;0.00;;;18.20;85.20;;;;;;5014897;28;20411;-73
2023/08/18 07:12:30;;;;;;;0.00;0.00;;;18.30;85.10;;;;;;5017271;28;20049;-73
2023/08/18 07:14:56;;;;;;;0.00;0.00;;;18.30;85.10;;;;;;5013356;28;20048;-74
2023/08/18 07:17:21;;;;;;;0.00;0.00;;;18.30;85.00;;;;;;5035960;28;20056;-73
2023/08/18 07:19:47;;;;;;;0.00;0.00;;;18.30;85.00;;;;;;5033063;28;20110;-73
2023/08/18 07:22:13;;;;;;;0.00;0.00;;;18.30;84.90;;;;;;5032104;28;20107;-73
2023/08/18 07:24:38;;;;;;;0.00;0.00;;;18.30;84.90;;;;;;5011916;28;20127;-74
2023/08/18 07:27:04;;;;;;;0.00;0.00;;;18.40;85.00;;;;;;5015730;28;20387;-73
2023/08/18 07:29:33;;;;;;;0.05;0.05;;;18.40;85.20;;;;;;5023643;28;20111;-76
2023/08/18 07:32:02;;;;;;;0.00;0.00;;;18.40;85.10;;;;;;5025238;28;20500;-74
2023/08/18 07:34:28;;;;;;;0.00;0.00;;;18.40;85.00;;;;;;5005216;28;20062;-73
2023/08/18 07:36:54;;;;;;;0.00;0.00;;;18.50;85.10;;;;;;5023588;28;20075;-74
2023/08/18 07:39:19;;;;;;;0.00;0.00;;;18.50;85.10;;;;;;5024871;28;20063;-73
2023/08/18 07:41:45;;;;;;;0.00;0.00;;;18.50;85.10;;;;;;5022881;28;20483;-74
2023/08/18 07:44:11;;;;;;;0.00;0.00;;;18.50;85.20;;;;;;5021795;28;20049;-74
2023/08/18 07:46:38;;;;;;;0.00;0.00;;;18.60;85.10;;;;;;5023736;28;20077;-74
2023/08/18 07:49:04;;;;;;;0.13;0.13;;;18.60;85.00;;;;;;5012835;28;20486;-75
2023/08/18 07:51:30;;;;;;;0.00;0.00;;;18.60;85.00;;;;;;5031335;28;20045;-72
2023/08/18 07:53:56;;;;;;;0.00;0.00;;;18.60;85.00;;;;;;5038789;28;20052;-71
2023/08/18 07:56:22;;;;;;;1.45;0.55;;;18.60;85.00;;;;;;5016481;28;20045;-71
2023/08/18 07:58:48;;;;;;;0.00;0.00;;;18.70;85.10;;;;;;5017640;28;20055;-71
2023/08/18 08:01:14;;;;;;;0.00;0.00;;;18.60;85.00;;;;;;5016911;28;20037;-71
2023/08/18 08:03:39;;;;;;;0.00;0.00;;;18.60;85.20;;;;;;5036475;28;20067;-71
2023/08/18 08:06:05;;;;;;;0.00;0.00;;;18.60;85.50;;;;;;5032646;28;20049;-72
2023/08/18 08:08:31;;;;;;;0.00;0.00;;;18.70;85.50;;;;;;5035666;28;20089;-72
2023/08/18 08:10:57;;;;;;;0.00;0.00;;;18.70;85.40;;;;;;5035607;28;20560;-74
2023/08/18 08:13:23;;;;;;;0.43;0.43;;;18.80;85.40;;;;;;5035021;28;20050;-73
2023/08/18 08:15:49;;;;;;;0.00;0.00;;;18.70;85.40;;;;;;5034549;28;20414;-74
2023/08/18 08:18:17;;;;;;;0.00;0.00;;;18.70;85.40;;;;;;5032923;28;20049;-74
2023/08/18 08:20:43;;;;;;;0.00;0.00;;;18.80;85.40;;;;;;5019549;28;20063;-73
2023/08/18 08:23:08;;;;;;;0.00;0.00;;;18.80;85.40;;;;;;5017776;28;20052;-75
2023/08/18 08:25:34;;;;;;;0.00;0.00;;;18.90;85.50;;;;;;5110281;22;20053;-74
2023/08/18 08:28:02;;;;;;;0.00;0.00;;;19.00;85.70;;;;;;5034474;28;20552;-74
2023/08/18 08:30:31;;;;;;;0.00;0.00;;;19.00;85.70;;;;;;5034941;28;20053;-74
2023/08/18 08:32:57;;;;;;;0.00;0.00;;;19.10;85.50;;;;;;5052249;28;20045;-75
2023/08/18 08:35:23;;;;;;;0.00;0.00;;;19.20;85.40;;;;;;5038980;28;20052;-74
2023/08/18 08:37:49;;;;;;;0.00;0.00;;;19.20;85.40;;;;;;5036017;28;20052;-75
2023/08/18 08:40:20;;;;;;;0.00;0.00;;;19.20;85.30;;;;;;5035666;28;20063;-73
2023/08/18 08:42:47;;;;;;;0.00;0.00;;;19.30;85.20;;;;;;5047650;28;20052;-74
2023/08/18 08:45:13;;;;;;;0.00;0.00;;;19.30;85.10;;;;;;5034955;28;20391;-74
2023/08/18 08:47:40;;;;;;;0.00;0.00;;;19.30;85.20;;;;;;5052074;28;20048;-74
2023/08/18 08:50:06;;;;;;;0.00;0.00;;;19.40;85.10;;;;;;5048187;28;20095;-74
2023/08/18 08:52:38;;;;;;;0.00;0.00;;;19.40;85.10;;;;;;5033395;28;20478;-74
2023/08/18 08:55:05;;;;;;;0.00;0.00;;;19.40;85.10;;;;;;5050056;28;20582;-74
2023/08/18 08:57:31;;;;;;;0.00;0.00;;;19.50;85.00;;;;;;5056453;28;20520;-75
2023/08/18 08:59:59;;;;;;;0.00;0.00;;;19.60;84.90;;;;;;5036115;28;20052;-74
2023/08/18 09:02:25;;;;;;;0.00;0.00;;;19.60;84.70;;;;;;5034454;28;20563;-75
2023/08/18 09:04:50;;;;;;;0.00;0.00;;;19.70;84.50;;;;;;5054654;28;20049;-74
2023/08/18 09:07:16;;;;;;;0.00;0.00;;;19.70;84.40;;;;;;5058438;28;20045;-74
2023/08/18 09:09:43;;;;;;;0.00;0.00;;;19.70;84.30;;;;;;5057961;28;20055;-74
2023/08/18 09:12:10;;;;;;;0.00;0.00;;;19.80;84.40;;;;;;5042971;28;20067;-74
2023/08/18 09:14:38;;;;;;;0.00;0.00;;;19.80;84.30;;;;;;5030653;28;20057;-74
2023/08/18 09:17:05;;;;;;;0.00;0.00;;;19.80;84.10;;;;;;5044946;28;20047;-75
2023/08/18 09:19:31;;;;;;;0.00;0.00;;;19.80;83.90;;;;;;5070471;28;20040;-75
2023/08/18 09:21:58;;;;;;;0.00;0.00;;;19.90;83.90;;;;;;5057089;28;20048;-77
2023/08/18 09:24:25;;;;;;;0.00;0.00;;;19.90;83.80;;;;;;5041450;28;20063;-74
2023/08/18 09:26:51;;;;;;;0.00;0.00;;;20.00;83.80;;;;;;5043464;28;20086;-75
2023/08/18 09:29:17;;;;;;;0.00;0.00;;;20.00;83.70;;;;;;5040149;28;20463;-74
2023/08/18 09:31:46;;;;;;;0.00;0.00;;;20.00;83.70;;;;;;5060295;28;20128;-75
2023/08/18 09:34:21;;;;;;;0.00;0.00;;;20.10;83.70;;;;;;5056189;28;20053;-73
2023/08/18 09:36:52;;;;;;;0.00;0.00;;;20.10;83.70;;;;;;5061822;28;20067;-74
2023/08/18 09:39:21;;;;;;;0.00;0.00;;;20.20;83.60;;;;;;5054187;28;20049;-75
2023/08/18 09:41:53;;;;;;;0.00;0.00;;;20.30;83.60;;;;;;5059581;28;20048;-74
2023/08/18 09:44:22;;;;;;;0.00;0.00;;;20.30;83.50;;;;;;5045201;28;20056;-74
2023/08/18 09:46:58;;;;;;;0.00;0.00;;;20.40;83.60;;;;;;5054819;28;20060;-75
2023/08/18 09:49:25;;;;;;;0.00;0.00;;;20.50;83.30;;;;;;5067224;28;20080;-74
2023/08/18 09:52:00;;;;;;;0.00;0.00;;;20.50;83.20;;;;;;5044902;28;20063;-74
2023/08/18 09:54:28;;;;;;;0.00;0.00;;;20.50;83.00;;;;;;5051329;28;20117;-76
2023/08/18 09:56:59;;;;;;;0.00;0.00;;;20.60;83.00;;;;;;5038640;28;20414;-74
2023/08/18 09:59:55;;;;;;;0.00;0.00;;;20.70;82.90;;;;;;5064913;28;20516;-75
2023/08/18 10:02:24;;;;;;;0.00;0.00;;;20.70;82.80;;;;;;5098605;22;20060;-75
2023/08/18 10:04:51;;;;;;;0.00;0.00;;;20.80;82.50;;;;;;5055544;28;20516;-74
2023/08/18 10:07:17;;;;;;;0.00;0.00;;;20.80;82.70;;;;;;5060786;28;20744;-74
2023/08/18 10:09:45;;;;;;;0.00;0.00;;;20.90;82.70;;;;;;5056624;28;20033;-74
2023/08/18 10:12:11;;;;;;;0.00;0.00;;;21.00;82.70;;;;;;5065455;28;20049;-74
2023/08/18 10:14:38;;;;;;;0.00;0.00;;;21.10;82.50;;;;;;5065398;28;20043;-74
2023/08/18 10:17:05;;;;;;;0.00;0.00;;;21.10;82.30;;;;;;5042378;28;20136;-75
2023/08/18 10:19:56;;;;;;;0.00;0.00;;;21.10;82.10;;;;;;5021471;28;20045;-75
2023/08/18 10:22:25;;;;;;;0.00;0.00;;;21.10;82.10;;;;;;5067417;28;20486;-75
2023/08/18 10:24:51;;;;;;;0.00;0.00;;;21.10;81.90;;;;;;5056575;28;20065;-75
2023/08/18 10:27:26;;;;;;;0.00;0.00;;;21.20;81.80;;;;;;5033515;28;20501;-75
2023/08/18 10:29:57;;;;;;;0.00;0.00;;;21.20;81.70;;;;;;5051389;28;20091;-75
2023/08/18 10:32:23;;;;;;;1.95;0.47;;;21.20;81.90;;;;;;5051656;28;20528;-74
2023/08/18 10:34:50;;;;;;;0.00;0.00;;;21.30;81.80;;;;;;5051297;28;20064;-74
2023/08/18 10:37:20;;;;;;;0.00;0.00;;;21.30;81.80;;;;;;5051306;28;20505;-74
2023/08/18 10:39:45;;;;;;;0.00;0.00;;;21.40;81.90;;;;;;5051412;28;20498;-74
2023/08/18 10:42:15;;;;;;;0.00;0.00;;;21.40;81.90;;;;;;5051202;28;20041;-75
2023/08/18 10:45:00;;;;;;;0.00;0.00;;;21.40;81.80;;;;;;5051084;28;20045;-74
2023/08/18 10:47:33;;;;;;;0.00;0.00;;;21.50;81.70;;;;;;5051241;28;20441;-74
2023/08/18 10:50:05;;;;;;;0.00;0.00;;;21.60;81.90;;;;;;5056869;28;20036;-74
2023/08/18 10:52:32;;;;;;;0.00;0.00;;;21.70;81.80;;;;;;5058215;28;20102;-79
2023/08/18 10:54:58;;;;;;;0.00;0.00;;;21.80;81.60;;;;;;5039676;28;20077;-77
2023/08/18 10:57:24;;;;;;;0.00;0.00;;;21.80;81.10;;;;;;5026275;28;20080;-78
2023/08/18 10:59:50;;;;;;;0.00;0.00;;;21.80;81.10;;;;;;5018803;28;20107;-78
2023/08/18 11:02:17;;;;;;;0.00;0.00;;;21.80;81.20;;;;;;5034139;28;20050;-78
2023/08/18 11:04:42;;;;;;;0.03;0.03;;;21.80;81.10;;;;;;5037491;28;20048;-78
2023/08/18 11:07:08;;;;;;;0.00;0.00;;;21.80;81.20;;;;;;5010825;28;20421;-77
2023/08/18 11:09:36;;;;;;;0.00;0.00;;;21.70;81.00;;;;;;5031819;28;20523;-75
2023/08/18 11:12:03;;;;;;;0.00;0.00;;;21.80;81.10;;;;;;5027825;28;20041;-78
2023/08/18 11:14:29;;;;;;;0.00;0.00;;;21.80;81.10;;;;;;5014811;28;20049;-76
2023/08/18 11:16:55;;;;;;;0.00;0.00;;;21.90;81.20;;;;;;5017419;28;20051;-76
2023/08/18 11:19:20;;;;;;;0.00;0.00;;;22.00;81.20;;;;;;5035590;28;20065;-79
2023/08/18 11:21:46;;;;;;;0.00;0.00;;;21.90;81.10;;;;;;5035321;28;20037;-79
2023/08/18 11:24:13;;;;;;;0.10;0.10;;;22.00;81.00;;;;;;5030559;28;20453;-76
2023/08/18 11:26:39;;;;;;;0.00;0.00;;;21.90;80.40;;;;;;5017265;28;20045;-75
2023/08/18 11:29:06;;;;;;;0.00;0.00;;;22.00;80.30;;;;;;5019273;28;20505;-75
2023/08/18 11:31:32;;;;;;;0.00;0.00;;;21.90;80.70;;;;;;5039892;28;20047;-75
2023/08/18 11:33:58;;;;;;;0.00;0.00;;;21.90;80.90;;;;;;5035407;28;20053;-75
2023/08/18 11:36:31;;;;;;;0.00;0.00;;;22.00;81.00;;;;;;5017777;28;20582;-76
2023/08/18 11:39:02;;;;;;;0.00;0.00;;;22.00;81.00;;;;;;5018622;28;20468;-75
2023/08/18 11:41:38;;;;;;;0.00;0.00;;;22.00;81.00;;;;;;5041242;28;20107;-75
2023/08/18 11:44:06;;;;;;;0.00;0.00;;;22.10;80.90;;;;;;5049993;28;20044;-76
2023/08/18 11:46:37;;;;;;;0.00;0.00;;;22.10;80.90;;;;;;5050030;28;20458;-76
2023/08/18 11:49:15;;;;;;;0.00;0.00;;;22.20;80.90;;;;;;5038080;28;20061;-73
2023/08/18 11:52:03;;;;;;;0.00;0.00;;;22.30;80.80;;;;;;5047914;28;20048;-74
2023/08/18 11:54:32;;;;;;;0.00;0.00;;;22.30;80.70;;;;;;5041409;28;20049;-74
2023/08/18 11:56:58;;;;;;;0.00;0.00;;;22.40;80.50;;;;;;5037043;28;20356;-75
2023/08/18 11:59:24;;;;;;;0.00;0.00;;;22.50;80.40;;;;;;5038632;28;20057;-75
2023/08/18 12:02:06;;;;;;;0.10;0.10;;;22.50;79.80;;;;;;5040078;28;20456;-75
2023/08/18 12:04:32;;;;;;;0.00;0.00;;;22.60;79.70;;;;;;5049242;28;20057;-74
2023/08/18 12:06:58;;;;;;;0.00;0.00;;;22.70;79.80;;;;;;5029608;28;20094;-75
2023/08/18 12:09:24;;;;;;;0.00;0.00;;;22.80;79.80;;;;;;5029633;28;20061;-75
2023/08/18 12:11:51;;;;;;;0.00;0.00;;;22.90;79.80;;;;;;5011986;28;20577;-75
2023/08/18 12:14:17;;;;;;;0.00;0.00;;;22.90;79.10;;;;;;4995314;28;20522;-75
2023/08/18 12:16:44;;;;;;;0.00;0.00;;;22.90;79.10;;;;;;5035057;28;20038;-75
2023/08/18 12:19:11;;;;;;;0.00;0.00;;;23.00;78.90;;;;;;5028321;28;20057;-74
2023/08/18 12:21:37;;;;;;;0.00;0.00;;;23.00;79.20;;;;;;5029235;28;20651;-74
2023/08/18 12:24:04;;;;;;;0.00;0.00;;;23.10;79.10;;;;;;5011030;28;20061;-75
2023/08/18 12:26:33;;;;;;;0.00;0.00;;;23.10;79.20;;;;;;5029285;28;20048;-75
2023/08/18 12:29:01;;;;;;;0.00;0.00;;;23.30;79.10;;;;;;5014596;28;20095;-74
2023/08/18 12:31:27;;;;;;;0.00;0.00;;;23.30;79.00;;;;;;5048869;28;20390;-75
2023/08/18 12:33:53;;;;;;;0.00;0.00;;;23.40;78.60;;;;;;5048640;28;20067;-74
2023/08/18 12:36:22;;;;;;;0.10;0.10;;;23.50;78.20;;;;;;5034513;28;20128;-74
2023/08/18 12:38:47;;;;;;;0.70;0.50;;;23.50;78.10;;;;;;5032847;28;20051;-74
2023/08/18 12:41:14;;;;;;;0.00;0.00;;;23.60;77.90;;;;;;5048550;28;20033;-74
2023/08/18 12:43:40;;;;;;;0.00;0.00;;;23.70;78.00;;;;;;5048606;28;20053;-74
2023/08/18 12:46:06;;;;;;;0.00;0.00;;;23.70;78.10;;;;;;5047625;28;20044;-74
2023/08/18 12:48:32;;;;;;;0.00;0.00;;;23.80;77.30;;;;;;5053329;28;20047;-75